Terminal Aerodrome Forecast
Issued by NWS South Bend, IN

Home | Current Version | Previous Version | Graphics & Text | Print | Product List | Glossary On
Versions: 1 2 3 4 5 6 7 8 9 10 11 12 13 14 15 16 17
000
FTUS43 KIWX 182300 RRA
TAFSBN
TAF
KSBN 182339Z 1900/1924 34006KT P6SM BKN070
     FM190100 06012G20KT P6SM BKN070
     FM190500 08014KT P6SM BKN150 WS015/12040KT
     FM191400 10015G22KT P6SM OVC035
     FM192000 12015G22KT 6SM RA OVC010=

USA.gov is the U.S. government's official web portal to all federal, state and local government web resources and services.